Terminal Aerodrome Forecast
Issued by NWS Wilmington, OH

Current Version | Previous Version | Graphics & Text | Print | Product List | Glossary On
Versions: 1 2 3 4 5 6 7 8 9 10 11 12 13 14 15 16 17 18 19
443
FTUS41 KILN 260540
TAFDAY
TAF
KDAY 260540Z 2606/2706 21008KT P6SM FEW050 BKN150
     FM260900 20007KT P6SM BKN020
     FM261200 21009KT P6SM BKN012
     FM261900 22010KT P6SM BKN035
     FM270100 19006KT P6SM FEW040 SCT250=

USA.gov is the U.S. government's official web portal to all federal, state and local government web resources and services.